ADDS TAF Data INFO
IDs: Format: Raw Decoded Include METARs

Data at: 1302 UTC 23 Apr 2018

METAR for:KDSM (Des Moines Intl, IA, US)
Text:KDSM 231254Z 04007KT 10SM FEW110 BKN130 BKN250 10/M01 A3021 RMK AO2 SLP229 T01001011
Temperature: 10.0°C ( 50°F)
Dewpoint: -1.1°C ( 30°F) [RH = 46%]
Pressure (altimeter):30.21 inches Hg (1023.1 mb) [Sea level pressure: 1022.9 mb]
Winds:from the NE (40 degrees) at 8 MPH (7 knots; 3.6 m/s)
Visibility:10 or more sm (16+ km)
Ceiling:13000 feet AGL
Clouds: few clouds at 11000 feet AGL, broken clouds at 13000 feet AGL, broken clouds at 25000 feet AGL

TAF for:KDSM (Des Moines Intl, IA, US) issued at 1120 UTC 23 Apr 2018
Text:KDSM 231120Z 2312/2412 05009KT P6SM SCT200
Forecast period:1200 UTC 23 April 2018 to 1200 UTC 24 April 2018
Forecast type:FROM: standard forecast or significant change
Winds:from the NE (50 degrees) at 10 MPH (9 knots; 4.6 m/s)
Visibility:6 or more sm (10+ km)
Ceiling:at least 12,000 feet AGL
Clouds: scattered clouds at 20000 feet AGL